sensor_id;sensor_type;location;lat;lon;timestamp;pressure;altitude;pressure_sealevel;temperature;humidity
49943;BME280;36011;53.362;58.948;2023-04-02T00:08:38;97564.69;;;-1.65;69.02
49943;BME280;36011;53.362;58.948;2023-04-02T00:11:50;97575.94;;;-1.72;68.50
49943;BME280;36011;53.362;58.948;2023-04-02T00:15:00;97564.78;;;-1.81;68.68
49943;BME280;36011;53.362;58.948;2023-04-02T00:18:08;97571.66;;;-1.84;68.12
49943;BME280;36011;53.362;58.948;2023-04-02T00:21:19;97575.09;;;-1.85;68.48
49943;BME280;36011;53.362;58.948;2023-04-02T00:24:21;97569.16;;;-1.98;68.63
49943;BME280;36011;53.362;58.948;2023-04-02T00:27:27;97568.31;;;-2.03;68.01
49943;BME280;36011;53.362;58.948;2023-04-02T00:30:33;97568.34;;;-2.12;68.11
49943;BME280;36011;53.362;58.948;2023-04-02T00:33:37;97572.66;;;-2.17;68.33
49943;BME280;36011;53.362;58.948;2023-04-02T00:36:39;97573.53;;;-2.17;68.41
49943;BME280;36011;53.362;58.948;2023-04-02T00:39:41;97570.97;;;-2.24;67.62
49943;BME280;36011;53.362;58.948;2023-04-02T00:42:46;97567.53;;;-2.30;68.19
49943;BME280;36011;53.362;58.948;2023-04-02T00:45:54;97579.56;;;-2.29;68.37
49943;BME280;36011;53.362;58.948;2023-04-02T00:49:15;97580.41;;;-2.27;68.47
49943;BME280;36011;53.362;58.948;2023-04-02T00:52:23;97576.13;;;-2.31;68.26
49943;BME280;36011;53.362;58.948;2023-04-02T00:55:38;97581.28;;;-2.31;68.67
49943;BME280;36011;53.362;58.948;2023-04-02T00:58:41;97571.00;;;-2.34;68.39
49943;BME280;36011;53.362;58.948;2023-04-02T01:01:55;97578.72;;;-2.34;68.31
49943;BME280;36011;53.362;58.948;2023-04-02T01:05:20;97577.00;;;-2.32;68.43
49943;BME280;36011;53.362;58.948;2023-04-02T01:15:41;97577.88;;;-2.39;68.40
49943;BME280;36011;53.362;58.948;2023-04-02T01:25:20;97584.75;;;-2.35;67.82
49943;BME280;36011;53.362;58.948;2023-04-02T01:28:30;97587.34;;;-2.35;67.97
49943;BME280;36011;53.362;58.948;2023-04-02T01:31:36;97590.75;;;-2.34;68.00
49943;BME280;36011;53.362;58.948;2023-04-02T01:34:42;97593.31;;;-2.33;67.74
49943;BME280;36011;53.362;58.948;2023-04-02T01:37:57;97591.63;;;-2.34;67.98
49943;BME280;36011;53.362;58.948;2023-04-02T01:41:10;97600.19;;;-2.38;67.86
49943;BME280;36011;53.362;58.948;2023-04-02T01:44:41;97595.06;;;-2.36;68.08
49943;BME280;36011;53.362;58.948;2023-04-02T01:47:42;97595.91;;;-2.36;68.22
49943;BME280;36011;53.362;58.948;2023-04-02T01:50:48;97598.47;;;-2.33;67.99
49943;BME280;36011;53.362;58.948;2023-04-02T01:53:52;97589.03;;;-2.29;68.47
49943;BME280;36011;53.362;58.948;2023-04-02T01:56:59;97598.47;;;-2.23;68.09
49943;BME280;36011;53.362;58.948;2023-04-02T02:00:04;97604.47;;;-2.20;68.46
49943;BME280;36011;53.362;58.948;2023-04-02T02:03:18;97598.44;;;-2.17;68.49
49943;BME280;36011;53.362;58.948;2023-04-02T02:06:24;97594.16;;;-2.12;67.97
49943;BME280;36011;53.362;58.948;2023-04-02T02:09:33;97596.72;;;-2.12;68.20
49943;BME280;36011;53.362;58.948;2023-04-02T02:12:42;97597.56;;;-2.13;68.32
49943;BME280;36011;53.362;58.948;2023-04-02T02:15:46;97596.72;;;-2.12;68.29
49943;BME280;36011;53.362;58.948;2023-04-02T02:18:54;97605.28;;;-2.10;68.35
49943;BME280;36011;53.362;58.948;2023-04-02T02:25:27;97608.72;;;-2.02;68.28
49943;BME280;36011;53.362;58.948;2023-04-02T02:28:32;97605.25;;;-1.92;68.23
49943;BME280;36011;53.362;58.948;2023-04-02T02:31:39;97600.03;;;-1.79;68.08
49943;BME280;36011;53.362;58.948;2023-04-02T02:34:51;97609.41;;;-1.63;67.87
49943;BME280;36011;53.362;58.948;2023-04-02T02:44:45;97611.84;;;-1.32;67.36
49943;BME280;36011;53.362;58.948;2023-04-02T02:47:51;97611.78;;;-1.23;67.12
49943;BME280;36011;53.362;58.948;2023-04-02T02:50:56;97601.38;;;-1.14;67.54
49943;BME280;36011;53.362;58.948;2023-04-02T02:54:04;97619.34;;;-0.96;66.72
49943;BME280;36011;53.362;58.948;2023-04-02T02:57:13;97610.63;;;-0.85;67.23
49943;BME280;36011;53.362;58.948;2023-04-02T03:00:19;97610.56;;;-0.79;66.87
49943;BME280;36011;53.362;58.948;2023-04-02T03:03:26;97610.53;;;-0.72;67.09
49943;BME280;36011;53.362;58.948;2023-04-02T03:06:37;97602.75;;;-0.67;67.10
49943;BME280;36011;53.362;58.948;2023-04-02T03:13:22;97623.22;;;-0.46;67.77
49943;BME280;36011;53.362;58.948;2023-04-02T03:16:38;97617.97;;;-0.36;67.94
49943;BME280;36011;53.362;58.948;2023-04-02T03:19:51;97605.84;;;-0.28;67.24
49943;BME280;36011;53.362;58.948;2023-04-02T03:23:02;97607.41;;;-0.15;66.67
49943;BME280;36011;53.362;58.948;2023-04-02T03:29:21;97609.75;;;0.07;66.81
49943;BME280;36011;53.362;58.948;2023-04-02T03:32:30;97600.19;;;0.15;66.46
49943;BME280;36011;53.362;58.948;2023-04-02T03:39:28;97609.13;;;0.56;66.17
49943;BME280;36011;53.362;58.948;2023-04-02T03:42:50;97606.41;;;0.68;66.57
49943;BME280;36011;53.362;58.948;2023-04-02T03:49:44;97612.94;;;0.94;65.51
49943;BME280;36011;53.362;58.948;2023-04-02T03:52:49;97611.00;;;1.08;65.60
49943;BME280;36011;53.362;58.948;2023-04-02T03:55:57;97612.50;;;1.21;65.04
49943;BME280;36011;53.362;58.948;2023-04-02T04:02:48;97626.59;;;1.59;63.80
49943;BME280;36011;53.362;58.948;2023-04-02T04:06:05;97622.94;;;1.71;63.90
49943;BME280;36011;53.362;58.948;2023-04-02T04:12:45;97624.06;;;2.04;63.04
49943;BME280;36011;53.362;58.948;2023-04-02T04:16:02;97626.41;;;2.16;62.24
49943;BME280;36011;53.362;58.948;2023-04-02T04:19:11;97627.06;;;2.28;61.77
49943;BME280;36011;53.362;58.948;2023-04-02T04:22:27;97629.41;;;2.40;62.02
49943;BME280;36011;53.362;58.948;2023-04-02T04:25:35;97636.16;;;2.48;61.56
49943;BME280;36011;53.362;58.948;2023-04-02T04:28:48;97638.44;;;2.64;61.35
49943;BME280;36011;53.362;58.948;2023-04-02T04:32:39;97639.84;;;2.80;61.08
49943;BME280;36011;53.362;58.948;2023-04-02T04:35:55;97627.50;;;2.88;60.54
49943;BME280;36011;53.362;58.948;2023-04-02T04:39:07;97628.03;;;3.04;60.37
49943;BME280;36011;53.362;58.948;2023-04-02T04:42:31;97634.66;;;3.18;59.85
49943;BME280;36011;53.362;58.948;2023-04-02T04:48:49;97626.19;;;3.45;59.84
49943;BME280;36011;53.362;58.948;2023-04-02T04:52:23;97633.47;;;3.67;58.98
49943;BME280;36011;53.362;58.948;2023-04-02T04:55:37;97631.41;;;3.79;58.74
49943;BME280;36011;53.362;58.948;2023-04-02T05:05:05;97636.66;;;4.11;57.45
49943;BME280;36011;53.362;58.948;2023-04-02T05:08:32;97641.44;;;4.26;56.97
49943;BME280;36011;53.362;58.948;2023-04-02T05:11:42;97635.88;;;4.40;56.64
49943;BME280;36011;53.362;58.948;2023-04-02T05:14:59;97627.66;;;4.54;56.37
49943;BME280;36011;53.362;58.948;2023-04-02T05:25:30;97641.66;;;5.09;55.04
49943;BME280;36011;53.362;58.948;2023-04-02T05:29:15;97653.34;;;9.65;48.44
49943;BME280;36011;53.362;58.948;2023-04-02T05:32:45;97657.50;;;16.95;35.87
49943;BME280;36011;53.362;58.948;2023-04-02T05:36:23;97660.41;;;22.06;27.59
49943;BME280;36011;53.362;58.948;2023-04-02T05:39:24;97666.44;;;26.25;23.00
49943;BME280;36011;53.362;58.948;2023-04-02T05:42:31;97664.53;;;28.78;20.46
49943;BME280;36011;53.362;58.948;2023-04-02T05:45:37;97665.50;;;30.84;17.69
49943;BME280;36011;53.362;58.948;2023-04-02T05:48:46;97664.81;;;32.07;16.77
49943;BME280;36011;53.362;58.948;2023-04-02T05:51:53;97666.03;;;32.81;13.49
49943;BME280;36011;53.362;58.948;2023-04-02T05:58:36;97660.31;;;34.97;13.42
49943;BME280;36011;53.362;58.948;2023-04-02T06:02:15;97670.44;;;36.19;11.47
49943;BME280;36011;53.362;58.948;2023-04-02T06:05:18;97669.22;;;35.74;11.74
49943;BME280;36011;53.362;58.948;2023-04-02T06:08:29;97672.75;;;37.01;10.39
49943;BME280;36011;53.362;58.948;2023-04-02T06:11:39;97668.75;;;38.85;9.55
49943;BME280;36011;53.362;58.948;2023-04-02T06:14:45;97670.09;;;40.05;9.13
49943;BME280;36011;53.362;58.948;2023-04-02T06:21:07;97669.44;;;41.42;7.73
49943;BME280;36011;53.362;58.948;2023-04-02T06:24:16;97679.75;;;42.12;7.53
49943;BME280;36011;53.362;58.948;2023-04-02T06:27:22;97679.91;;;42.80;7.15
49943;BME280;36011;53.362;58.948;2023-04-02T06:30:30;97684.47;;;43.35;6.19
49943;BME280;36011;53.362;58.948;2023-04-02T06:33:35;97670.25;;;43.41;6.74
49943;BME280;36011;53.362;58.948;2023-04-02T06:36:40;97682.16;;;43.95;6.86
49943;BME280;36011;53.362;58.948;2023-04-02T06:39:46;97679.28;;;44.05;6.22
49943;BME280;36011;53.362;58.948;2023-04-02T06:42:52;97686.31;;;44.59;5.90
49943;BME280;36011;53.362;58.948;2023-04-02T06:46:15;97689.78;;;44.27;6.03
49943;BME280;36011;53.362;58.948;2023-04-02T06:49:45;97679.41;;;44.38;6.08
49943;BME280;36011;53.362;58.948;2023-04-02T06:52:54;97683.94;;;43.86;6.08
49943;BME280;36011;53.362;58.948;2023-04-02T06:56:27;97691.75;;;45.02;5.67
49943;BME280;36011;53.362;58.948;2023-04-02T06:59:39;97685.81;;;45.42;5.11
49943;BME280;36011;53.362;58.948;2023-04-02T07:02:47;97687.28;;;45.53;5.09
49943;BME280;36011;53.362;58.948;2023-04-02T07:05:56;97692.34;;;45.32;5.00
49943;BME280;36011;53.362;58.948;2023-04-02T07:09:05;97693.34;;;43.85;4.94
49943;BME280;36011;53.362;58.948;2023-04-02T07:12:17;97684.91;;;42.83;5.86
49943;BME280;36011;53.362;58.948;2023-04-02T07:15:30;97684.09;;;42.33;5.98
49943;BME280;36011;53.362;58.948;2023-04-02T07:18:37;97682.38;;;41.72;5.79
49943;BME280;36011;53.362;58.948;2023-04-02T07:21:41;97680.88;;;42.06;6.03
49943;BME280;36011;53.362;58.948;2023-04-02T07:24:43;97680.13;;;42.50;5.16
49943;BME280;36011;53.362;58.948;2023-04-02T07:27:51;97681.16;;;43.33;4.95
49943;BME280;36011;53.362;58.948;2023-04-02T07:30:57;97677.41;;;44.95;4.39
49943;BME280;36011;53.362;58.948;2023-04-02T07:34:05;97690.81;;;45.73;3.75
49943;BME280;36011;53.362;58.948;2023-04-02T07:37:15;97677.16;;;45.11;3.92
49943;BME280;36011;53.362;58.948;2023-04-02T07:40:19;97668.56;;;45.26;3.92
49943;BME280;36011;53.362;58.948;2023-04-02T07:43:23;97676.25;;;43.78;3.75
49943;BME280;36011;53.362;58.948;2023-04-02T07:46:28;97669.22;;;42.19;4.55
49943;BME280;36011;53.362;58.948;2023-04-02T07:49:33;97667.66;;;41.98;4.42
49943;BME280;36011;53.362;58.948;2023-04-02T07:52:42;97666.66;;;43.41;4.26
49943;BME280;36011;53.362;58.948;2023-04-02T07:55:53;97677.47;;;44.76;3.69
49943;BME280;36011;53.362;58.948;2023-04-02T07:58:58;97676.38;;;45.84;3.84
49943;BME280;36011;53.362;58.948;2023-04-02T08:02:11;97673.72;;;46.07;3.50
49943;BME280;36011;53.362;58.948;2023-04-02T08:05:21;97672.47;;;44.92;3.64
49943;BME280;36011;53.362;58.948;2023-04-02T08:08:28;97667.38;;;44.24;4.10
49943;BME280;36011;53.362;58.948;2023-04-02T08:11:32;97669.88;;;44.01;4.23
49943;BME280;36011;53.362;58.948;2023-04-02T08:14:36;97669.41;;;44.94;4.19
49943;BME280;36011;53.362;58.948;2023-04-02T08:17:42;97681.63;;;45.86;3.75
49943;BME280;36011;53.362;58.948;2023-04-02T08:20:46;97672.22;;;44.37;4.06
49943;BME280;36011;53.362;58.948;2023-04-02T08:23:47;97667.53;;;43.07;4.18
49943;BME280;36011;53.362;58.948;2023-04-02T08:26:54;97670.66;;;42.61;4.77
49943;BME280;36011;53.362;58.948;2023-04-02T08:29:56;97651.75;;;41.43;4.42
49943;BME280;36011;53.362;58.948;2023-04-02T08:33:06;97659.50;;;41.62;4.79
49943;BME280;36011;53.362;58.948;2023-04-02T08:36:15;97659.13;;;42.44;4.39
49943;BME280;36011;53.362;58.948;2023-04-02T08:39:22;97659.16;;;43.12;4.31
49943;BME280;36011;53.362;58.948;2023-04-02T08:42:39;97655.44;;;44.04;4.29
49943;BME280;36011;53.362;58.948;2023-04-02T08:49:01;97660.28;;;45.07;4.02
49943;BME280;36011;53.362;58.948;2023-04-02T08:55:53;97659.91;;;46.02;3.49
49943;BME280;36011;53.362;58.948;2023-04-02T09:02:40;97657.75;;;45.99;3.40
49943;BME280;36011;53.362;58.948;2023-04-02T09:05:52;97657.53;;;45.54;3.54
49943;BME280;36011;53.362;58.948;2023-04-02T09:08:58;97646.56;;;43.54;3.77
49943;BME280;36011;53.362;58.948;2023-04-02T09:12:03;97640.41;;;42.70;4.38
49943;BME280;36011;53.362;58.948;2023-04-02T09:18:16;97636.97;;;43.70;4.30
49943;BME280;36011;53.362;58.948;2023-04-02T09:24:27;97633.28;;;43.51;3.60
49943;BME280;36011;53.362;58.948;2023-04-02T09:27:33;97618.94;;;42.91;3.37
49943;BME280;36011;53.362;58.948;2023-04-02T09:31:02;97611.94;;;42.25;4.15
49943;BME280;36011;53.362;58.948;2023-04-02T09:34:25;97625.00;;;42.09;3.60
49943;BME280;36011;53.362;58.948;2023-04-02T09:37:29;97614.09;;;39.84;4.07
49943;BME280;36011;53.362;58.948;2023-04-02T09:40:50;97612.44;;;39.88;4.33
49943;BME280;36011;53.362;58.948;2023-04-02T09:44:17;97598.00;;;40.79;4.27
49943;BME280;36011;53.362;58.948;2023-04-02T09:47:26;97608.28;;;39.80;4.27
49943;BME280;36011;53.362;58.948;2023-04-02T09:50:32;97608.50;;;39.21;4.25
49943;BME280;36011;53.362;58.948;2023-04-02T09:53:35;97605.47;;;37.99;4.66
49943;BME280;36011;53.362;58.948;2023-04-02T09:56:44;97593.84;;;37.08;4.87
49943;BME280;36011;53.362;58.948;2023-04-02T10:00:21;97587.59;;;36.96;5.24
49943;BME280;36011;53.362;58.948;2023-04-02T10:03:27;97594.59;;;37.21;4.64
49943;BME280;36011;53.362;58.948;2023-04-02T10:06:32;97592.31;;;37.57;4.59
49943;BME280;36011;53.362;58.948;2023-04-02T10:09:36;97589.56;;;37.35;4.52
49943;BME280;36011;53.362;58.948;2023-04-02T10:12:40;97578.44;;;36.40;5.24
49943;BME280;36011;53.362;58.948;2023-04-02T10:16:08;97577.22;;;36.02;5.23
49943;BME280;36011;53.362;58.948;2023-04-02T10:19:29;97578.84;;;34.75;5.64
49943;BME280;36011;53.362;58.948;2023-04-02T10:22:37;97565.81;;;33.63;5.95
49943;BME280;36011;53.362;58.948;2023-04-02T10:25:48;97562.25;;;33.93;6.02
49943;BME280;36011;53.362;58.948;2023-04-02T10:32:47;97561.91;;;34.31;5.54
49943;BME280;36011;53.362;58.948;2023-04-02T10:39:36;97554.81;;;34.00;5.65
49943;BME280;36011;53.362;58.948;2023-04-02T10:46:13;97549.34;;;33.33;5.29
49943;BME280;36011;53.362;58.948;2023-04-02T10:52:52;97548.47;;;31.95;5.65
49943;BME280;36011;53.362;58.948;2023-04-02T10:56:01;97538.72;;;31.29;5.46
49943;BME280;36011;53.362;58.948;2023-04-02T10:59:15;97544.59;;;31.26;5.34
49943;BME280;36011;53.362;58.948;2023-04-02T11:02:25;97542.50;;;31.28;5.41
49943;BME280;36011;53.362;58.948;2023-04-02T11:05:49;97543.03;;;31.95;5.27
49943;BME280;36011;53.362;58.948;2023-04-02T11:08:56;97545.50;;;32.29;5.53
49943;BME280;36011;53.362;58.948;2023-04-02T11:12:02;97552.50;;;31.35;6.22
49943;BME280;36011;53.362;58.948;2023-04-02T11:15:14;97548.47;;;30.59;6.11
49943;BME280;36011;53.362;58.948;2023-04-02T11:18:30;97551.81;;;30.48;6.27
49943;BME280;36011;53.362;58.948;2023-04-02T11:25:02;97540.50;;;30.17;6.06
49943;BME280;36011;53.362;58.948;2023-04-02T11:28:17;97548.25;;;30.54;6.13
49943;BME280;36011;53.362;58.948;2023-04-02T11:31:25;97536.34;;;30.15;6.27
49943;BME280;36011;53.362;58.948;2023-04-02T11:37:55;97535.88;;;28.95;7.04
49943;BME280;36011;53.362;58.948;2023-04-02T11:41:01;97537.41;;;28.20;7.15
49943;BME280;36011;53.362;58.948;2023-04-02T11:44:21;97532.22;;;27.24;7.86
49943;BME280;36011;53.362;58.948;2023-04-02T11:47:28;97539.66;;;26.63;8.32
49943;BME280;36011;53.362;58.948;2023-04-02T11:50:36;97533.69;;;26.30;8.31
49943;BME280;36011;53.362;58.948;2023-04-02T11:53:45;97532.19;;;26.50;8.58
49943;BME280;36011;53.362;58.948;2023-04-02T11:56:55;97527.31;;;26.46;8.51
49943;BME280;36011;53.362;58.948;2023-04-02T12:09:57;97515.22;;;24.79;9.85
49943;BME280;36011;53.362;58.948;2023-04-02T12:13:15;97515.09;;;25.12;9.23
49943;BME280;36011;53.362;58.948;2023-04-02T12:16:23;97515.84;;;25.37;9.41
49943;BME280;36011;53.362;58.948;2023-04-02T12:19:33;97508.78;;;25.59;9.49
49943;BME280;36011;53.362;58.948;2023-04-02T12:22:38;97513.53;;;24.86;10.13
49943;BME280;36011;53.362;58.948;2023-04-02T12:25:57;97507.41;;;24.20;10.34
49943;BME280;36011;53.362;58.948;2023-04-02T12:29:27;97506.66;;;23.28;10.80
49943;BME280;36011;53.362;58.948;2023-04-02T12:32:37;97517.97;;;22.71;10.93
49943;BME280;36011;53.362;58.948;2023-04-02T12:35:44;97507.19;;;22.11;11.36
49943;BME280;36011;53.362;58.948;2023-04-02T12:38:48;97505.06;;;21.43;11.77
49943;BME280;36011;53.362;58.948;2023-04-02T12:41:52;97502.38;;;20.97;12.46
49943;BME280;36011;53.362;58.948;2023-04-02T12:44:58;97493.47;;;20.79;12.83
49943;BME280;36011;53.362;58.948;2023-04-02T12:48:04;97506.75;;;20.71;12.84
49943;BME280;36011;53.362;58.948;2023-04-02T12:51:06;97502.97;;;20.91;12.87
49943;BME280;36011;53.362;58.948;2023-04-02T12:54:14;97508.22;;;21.11;13.09
49943;BME280;36011;53.362;58.948;2023-04-02T13:00:31;97505.53;;;20.83;13.14
49943;BME280;36011;53.362;58.948;2023-04-02T13:03:38;97504.75;;;20.73;13.39
49943;BME280;36011;53.362;58.948;2023-04-02T13:06:48;97505.63;;;20.63;13.03
49943;BME280;36011;53.362;58.948;2023-04-02T13:10:26;97514.38;;;20.46;13.28
49943;BME280;36011;53.362;58.948;2023-04-02T13:13:32;97502.38;;;20.23;13.13
49943;BME280;36011;53.362;58.948;2023-04-02T13:16:36;97511.16;;;19.86;13.35
49943;BME280;36011;53.362;58.948;2023-04-02T13:19:44;97507.22;;;19.80;13.38
49943;BME280;36011;53.362;58.948;2023-04-02T13:22:46;97517.91;;;19.70;13.56
49943;BME280;36011;53.362;58.948;2023-04-02T13:25:52;97516.00;;;19.42;13.80
49943;BME280;36011;53.362;58.948;2023-04-02T13:29:22;97513.03;;;19.06;13.78
49943;BME280;36011;53.362;58.948;2023-04-02T13:32:29;97522.41;;;18.60;14.13
49943;BME280;36011;53.362;58.948;2023-04-02T13:35:35;97523.13;;;18.20;14.41
49943;BME280;36011;53.362;58.948;2023-04-02T13:38:37;97520.00;;;17.73;14.94
49943;BME280;36011;53.362;58.948;2023-04-02T13:41:46;97523.09;;;17.25;15.30
49943;BME280;36011;53.362;58.948;2023-04-02T13:44:51;97519.75;;;16.67;15.68
49943;BME280;36011;53.362;58.948;2023-04-02T13:47:55;97507.16;;;16.01;16.36
49943;BME280;36011;53.362;58.948;2023-04-02T13:51:04;97516.19;;;15.63;16.86
49943;BME280;36011;53.362;58.948;2023-04-02T13:57:20;97525.25;;;14.76;17.48
49943;BME280;36011;53.362;58.948;2023-04-02T14:00:27;97519.56;;;14.31;17.82
49943;BME280;36011;53.362;58.948;2023-04-02T14:03:28;97513.19;;;13.95;18.24
49943;BME280;36011;53.362;58.948;2023-04-02T14:07:00;97522.69;;;13.72;18.39
49943;BME280;36011;53.362;58.948;2023-04-02T14:10:21;97510.31;;;13.33;18.49
49943;BME280;36011;53.362;58.948;2023-04-02T14:14:20;97523.50;;;13.06;18.77
49943;BME280;36011;53.362;58.948;2023-04-02T14:24:01;97528.88;;;12.20;18.99
49943;BME280;36011;53.362;58.948;2023-04-02T14:27:17;97532.63;;;11.87;19.49
49943;BME280;36011;53.362;58.948;2023-04-02T14:30:38;97532.69;;;11.55;19.85
49943;BME280;36011;53.362;58.948;2023-04-02T14:37:18;97539.06;;;11.05;20.62
49943;BME280;36011;53.362;58.948;2023-04-02T14:40:44;97540.59;;;10.77;20.99
49943;BME280;36011;53.362;58.948;2023-04-02T14:44:03;97541.28;;;10.65;21.59
49943;BME280;36011;53.362;58.948;2023-04-02T14:47:28;97540.22;;;10.52;21.25
49943;BME280;36011;53.362;58.948;2023-04-02T14:50:43;97551.59;;;10.37;21.93
49943;BME280;36011;53.362;58.948;2023-04-02T14:57:06;97552.88;;;9.95;22.85
49943;BME280;36011;53.362;58.948;2023-04-02T15:00:26;97557.81;;;9.83;23.53
49943;BME280;36011;53.362;58.948;2023-04-02T15:03:35;97554.19;;;9.69;23.92
49943;BME280;36011;53.362;58.948;2023-04-02T15:06:49;97560.63;;;9.63;24.29
49943;BME280;36011;53.362;58.948;2023-04-02T15:13:11;97560.91;;;9.57;25.10
49943;BME280;36011;53.362;58.948;2023-04-02T15:16:24;97567.53;;;9.29;25.39
49943;BME280;36011;53.362;58.948;2023-04-02T15:19:28;97564.88;;;9.12;25.69
49943;BME280;36011;53.362;58.948;2023-04-02T15:22:37;97571.25;;;9.06;25.22
49943;BME280;36011;53.362;58.948;2023-04-02T15:25:47;97574.97;;;8.83;26.45
49943;BME280;36011;53.362;58.948;2023-04-02T15:35:46;97579.06;;;8.51;28.47
49943;BME280;36011;53.362;58.948;2023-04-02T15:38:55;97576.91;;;8.40;29.06
49943;BME280;36011;53.362;58.948;2023-04-02T15:42:17;97575.31;;;8.36;29.43
49943;BME280;36011;53.362;58.948;2023-04-02T15:45:42;97579.81;;;8.14;29.46
49943;BME280;36011;53.362;58.948;2023-04-02T16:00:15;97582.28;;;7.55;31.84
49943;BME280;36011;53.362;58.948;2023-04-02T16:13:34;97590.66;;;6.99;32.93
49943;BME280;36011;53.362;58.948;2023-04-02T16:16:41;97599.94;;;6.84;33.16
49943;BME280;36011;53.362;58.948;2023-04-02T16:19:50;97599.09;;;6.84;33.73
49943;BME280;36011;53.362;58.948;2023-04-02T16:23:02;97608.75;;;6.82;33.76
49943;BME280;36011;53.362;58.948;2023-04-02T16:29:48;97604.41;;;6.59;34.40
49943;BME280;36011;53.362;58.948;2023-04-02T16:33:20;97617.66;;;6.54;34.59
49943;BME280;36011;53.362;58.948;2023-04-02T16:53:09;97624.72;;;6.02;36.59
49943;BME280;36011;53.362;58.948;2023-04-02T17:06:11;97627.25;;;5.78;37.68
49943;BME280;36011;53.362;58.948;2023-04-02T17:09:17;97629.47;;;5.64;37.88
49943;BME280;36011;53.362;58.948;2023-04-02T17:12:31;97627.84;;;5.60;38.50
49943;BME280;36011;53.362;58.948;2023-04-02T17:15:40;97627.22;;;5.53;38.77
49943;BME280;36011;53.362;58.948;2023-04-02T17:18:46;97626.56;;;5.47;38.99
49943;BME280;36011;53.362;58.948;2023-04-02T17:21:52;97621.50;;;5.40;39.33
49943;BME280;36011;53.362;58.948;2023-04-02T17:24:57;97630.31;;;5.38;40.40
49943;BME280;36011;53.362;58.948;2023-04-02T17:28:11;97630.34;;;5.36;42.83
49943;BME280;36011;53.362;58.948;2023-04-02T17:31:23;97634.16;;;5.26;43.09
49943;BME280;36011;53.362;58.948;2023-04-02T17:34:32;97624.75;;;5.21;43.52
49943;BME280;36011;53.362;58.948;2023-04-02T17:37:44;97643.19;;;5.16;44.89
49943;BME280;36011;53.362;58.948;2023-04-02T17:50:52;97642.13;;;4.93;46.66
49943;BME280;36011;53.362;58.948;2023-04-02T17:54:24;97638.81;;;4.88;48.02
49943;BME280;36011;53.362;58.948;2023-04-02T18:07:47;97641.16;;;4.68;48.70
49943;BME280;36011;53.362;58.948;2023-04-02T18:20:44;97638.31;;;4.44;48.84
49943;BME280;36011;53.362;58.948;2023-04-02T18:23:57;97639.41;;;4.37;49.42
49943;BME280;36011;53.362;58.948;2023-04-02T18:30:22;97642.19;;;4.31;50.91
49943;BME280;36011;53.362;58.948;2023-04-02T18:36:49;97646.56;;;4.29;50.69
49943;BME280;36011;53.362;58.948;2023-04-02T18:40:08;97639.91;;;4.19;51.30
49943;BME280;36011;53.362;58.948;2023-04-02T18:46:53;97644.06;;;3.93;50.79
49943;BME280;36011;53.362;58.948;2023-04-02T18:50:23;97649.69;;;3.76;51.26
49943;BME280;36011;53.362;58.948;2023-04-02T18:53:32;97653.75;;;3.52;51.34
49943;BME280;36011;53.362;58.948;2023-04-02T18:56:39;97644.69;;;3.33;51.61
49943;BME280;36011;53.362;58.948;2023-04-02T19:03:37;97659.97;;;3.09;51.60
49943;BME280;36011;53.362;58.948;2023-04-02T19:06:50;97652.47;;;2.96;52.41
49943;BME280;36011;53.362;58.948;2023-04-02T19:09:57;97660.50;;;2.86;52.31
49943;BME280;36011;53.362;58.948;2023-04-02T19:13:16;97658.03;;;2.79;52.97
49943;BME280;36011;53.362;58.948;2023-04-02T19:16:28;97653.06;;;2.69;52.34
49943;BME280;36011;53.362;58.948;2023-04-02T19:23:11;97664.44;;;2.62;53.25
49943;BME280;36011;53.362;58.948;2023-04-02T19:26:25;97663.69;;;2.57;53.37
49943;BME280;36011;53.362;58.948;2023-04-02T19:33:22;97668.34;;;2.40;54.28
49943;BME280;36011;53.362;58.948;2023-04-02T19:36:34;97665.94;;;2.31;54.04
49943;BME280;36011;53.362;58.948;2023-04-02T19:42:50;97669.59;;;2.20;53.93
49943;BME280;36011;53.362;58.948;2023-04-02T19:45:55;97661.16;;;2.09;54.22
49943;BME280;36011;53.362;58.948;2023-04-02T19:49:11;97662.88;;;2.09;54.92
49943;BME280;36011;53.362;58.948;2023-04-02T19:52:14;97648.47;;;1.94;54.55
49943;BME280;36011;53.362;58.948;2023-04-02T19:55:19;97662.28;;;1.96;54.76
49943;BME280;36011;53.362;58.948;2023-04-02T20:01:27;97658.97;;;1.86;55.31
49943;BME280;36011;53.362;58.948;2023-04-02T20:04:31;97658.22;;;1.79;55.33
49943;BME280;36011;53.362;58.948;2023-04-02T20:07:35;97665.19;;;1.77;55.58
49943;BME280;36011;53.362;58.948;2023-04-02T20:10:42;97654.84;;;1.74;55.64
49943;BME280;36011;53.362;58.948;2023-04-02T20:13:46;97650.50;;;1.76;55.80
49943;BME280;36011;53.362;58.948;2023-04-02T20:16:49;97656.56;;;1.75;56.25
49943;BME280;36011;53.362;58.948;2023-04-02T20:19:53;97654.13;;;1.66;56.80
49943;BME280;36011;53.362;58.948;2023-04-02T20:22:55;97652.53;;;1.57;57.12
49943;BME280;36011;53.362;58.948;2023-04-02T20:26:03;97650.84;;;1.55;57.79
49943;BME280;36011;53.362;58.948;2023-04-02T20:29:09;97652.53;;;1.57;57.44
49943;BME280;36011;53.362;58.948;2023-04-02T20:32:15;97649.94;;;1.59;57.01
49943;BME280;36011;53.362;58.948;2023-04-02T20:35:22;97650.75;;;1.61;57.18
49943;BME280;36011;53.362;58.948;2023-04-02T20:38:24;97651.59;;;1.63;57.69
49943;BME280;36011;53.362;58.948;2023-04-02T20:41:25;97661.00;;;1.70;57.47
49943;BME280;36011;53.362;58.948;2023-04-02T20:44:28;97654.91;;;1.71;57.54
49943;BME280;36011;53.362;58.948;2023-04-02T20:47:32;97649.88;;;1.62;57.27
49943;BME280;36011;53.362;58.948;2023-04-02T20:50:33;97642.28;;;1.50;57.95
49943;BME280;36011;53.362;58.948;2023-04-02T20:53:36;97639.75;;;1.47;57.81
49943;BME280;36011;53.362;58.948;2023-04-02T20:56:40;97630.44;;;1.37;58.15
49943;BME280;36011;53.362;58.948;2023-04-02T20:59:45;97639.81;;;1.44;58.73
49943;BME280;36011;53.362;58.948;2023-04-02T21:02:49;97643.44;;;1.33;59.01
49943;BME280;36011;53.362;58.948;2023-04-02T21:05:52;97646.03;;;1.32;58.87
49943;BME280;36011;53.362;58.948;2023-04-02T21:09:04;97652.13;;;1.31;59.61